createdAt,value
2022-10-19T00:01:23.862Z,82.27
2022-10-19T00:03:25.694Z,82.20
2022-10-19T00:05:29.569Z,81.74
2022-10-19T00:07:31.637Z,81.99
2022-10-19T00:09:33.653Z,81.69
2022-10-19T00:11:39.114Z,81.83
2022-10-19T00:13:40.962Z,82.01
2022-10-19T00:15:43.026Z,81.80
2022-10-19T00:17:44.808Z,82.19
2022-10-19T00:19:46.661Z,82.27
2022-10-19T00:23:52.846Z,82.63
2022-10-19T00:25:56.429Z,82.58
2022-10-19T00:27:58.268Z,82.36
2022-10-19T00:30:00.223Z,82.47
2022-10-19T00:32:02.133Z,82.94
2022-10-19T00:34:04.077Z,82.88
2022-10-19T00:36:06.998Z,83.10
2022-10-19T00:38:08.768Z,83.23
2022-10-19T00:40:10.911Z,83.28
2022-10-19T00:42:13.330Z,83.35
2022-10-19T00:44:16.111Z,83.54
2022-10-19T00:46:17.919Z,83.57
2022-10-19T00:48:26.097Z,83.61
2022-10-19T00:50:28.055Z,83.66
2022-10-19T00:52:30.649Z,83.57
2022-10-19T00:54:33.812Z,83.43
2022-10-19T00:56:39.691Z,83.58
2022-10-19T00:58:43.327Z,83.56
2022-10-19T01:00:45.729Z,83.53
2022-10-19T01:02:47.839Z,83.44
2022-10-19T01:04:52.396Z,83.59
2022-10-19T01:06:55.043Z,83.55
2022-10-19T01:08:58.887Z,83.48
2022-10-19T01:11:31.597Z,83.70
2022-10-19T01:13:44.248Z,83.40
2022-10-19T01:15:48.779Z,83.46
2022-10-19T01:17:59.653Z,83.28
2022-10-19T01:20:39.957Z,83.64
2022-10-19T01:23:19.509Z,83.20
2022-10-19T01:26:19.582Z,83.03
2022-10-19T01:28:48.631Z,83.10
2022-10-19T01:31:09.699Z,83.44
2022-10-19T01:33:48.298Z,83.15
2022-10-19T01:36:19.398Z,83.40
2022-10-19T01:38:53.240Z,83.57
2022-10-19T01:41:12.811Z,83.72
2022-10-19T01:43:21.687Z,83.53
2022-10-19T01:45:35.211Z,83.23
2022-10-19T01:48:12.510Z,83.44
2022-10-19T01:50:25.220Z,83.53
2022-10-19T01:52:29.952Z,83.52
2022-10-19T01:54:36.997Z,83.50
2022-10-19T01:56:42.560Z,83.29
2022-10-19T01:58:46.795Z,83.51
2022-10-19T02:00:51.781Z,83.27
2022-10-19T02:02:54.868Z,83.46
2022-10-19T02:04:57.829Z,83.44
2022-10-19T02:07:01.957Z,83.60
2022-10-19T02:09:03.948Z,83.31
2022-10-19T02:11:06.559Z,83.38
2022-10-19T02:13:16.651Z,83.18
2022-10-19T02:15:22.702Z,83.26
2022-10-19T02:17:30.807Z,83.34
2022-10-19T02:19:32.804Z,83.17
2022-10-19T02:21:35.305Z,83.24
2022-10-19T02:23:38.266Z,82.97
2022-10-19T02:25:41.241Z,83.27
2022-10-19T02:27:43.403Z,83.29
2022-10-19T02:29:46.630Z,82.87
2022-10-19T02:31:48.860Z,82.62
2022-10-19T02:33:50.759Z,82.41
2022-10-19T02:35:52.664Z,82.35
2022-10-19T02:38:00.204Z,82.79
2022-10-19T02:40:02.626Z,82.76
2022-10-19T02:42:15.287Z,82.46
2022-10-19T02:44:25.019Z,82.35
2022-10-19T02:46:35.194Z,82.27
2022-10-19T02:48:39.272Z,82.40
2022-10-19T02:50:46.624Z,82.42
2022-10-19T02:52:48.523Z,82.08
2022-10-19T02:54:50.444Z,82.25
2022-10-19T02:56:52.306Z,82.41
2022-10-19T02:58:54.274Z,81.87
2022-10-19T03:00:56.169Z,82.35
2022-10-19T03:02:58.094Z,82.38
2022-10-19T03:04:59.943Z,82.41
2022-10-19T03:07:02.133Z,82.36
2022-10-19T03:09:04.282Z,82.30
2022-10-19T03:11:06.153Z,82.30
2022-10-19T03:13:08.113Z,82.68
2022-10-19T03:15:14.935Z,82.49
2022-10-19T03:17:16.836Z,82.87
2022-10-19T03:19:18.661Z,82.76
2022-10-19T03:21:20.854Z,82.69
2022-10-19T03:23:22.710Z,82.72
2022-10-19T03:25:24.743Z,82.77
2022-10-19T03:27:26.678Z,82.77
2022-10-19T03:29:28.587Z,82.60
2022-10-19T03:31:31.513Z,82.72
2022-10-19T03:33:35.377Z,82.73
2022-10-19T03:35:37.155Z,82.64
2022-10-19T03:37:39.985Z,83.02
2022-10-19T03:39:41.869Z,82.53
2022-10-19T03:41:44.363Z,82.46
2022-10-19T03:43:46.487Z,82.36
2022-10-19T03:45:48.400Z,82.79
2022-10-19T03:47:52.721Z,82.38
2022-10-19T03:49:54.668Z,82.23
2022-10-19T03:51:56.492Z,82.01
2022-10-19T03:54:02.106Z,81.74
2022-10-19T03:56:06.606Z,81.52
2022-10-19T03:58:08.503Z,81.54
2022-10-19T04:00:11.406Z,81.12
2022-10-19T04:02:13.350Z,81.31
2022-10-19T04:04:18.173Z,81.34
2022-10-19T04:06:27.545Z,81.02
2022-10-19T04:08:29.660Z,81.30
2022-10-19T04:10:31.724Z,80.74
2022-10-19T04:12:33.717Z,80.75
2022-10-19T04:14:52.568Z,81.05
2022-10-19T04:16:58.265Z,80.73
2022-10-19T04:19:00.667Z,80.75
2022-10-19T04:21:05.896Z,80.35
2022-10-19T04:23:07.831Z,80.26
2022-10-19T04:25:11.358Z,79.68
2022-10-19T04:27:13.199Z,79.84
2022-10-19T04:29:16.629Z,79.90
2022-10-19T04:31:18.563Z,79.85
2022-10-19T04:33:20.602Z,79.51
2022-10-19T04:35:22.493Z,79.75
2022-10-19T04:37:24.435Z,79.51
2022-10-19T04:39:26.330Z,79.63
2022-10-19T04:41:28.222Z,79.41
2022-10-19T04:43:32.506Z,79.60
2022-10-19T04:45:36.154Z,79.92
2022-10-19T04:47:38.014Z,79.58
2022-10-19T04:49:39.930Z,79.06
2022-10-19T04:51:41.818Z,79.23
2022-10-19T04:53:44.280Z,79.00
2022-10-19T04:55:46.255Z,79.01
2022-10-19T04:57:48.140Z,78.55
2022-10-19T04:59:50.009Z,79.31
2022-10-19T05:01:51.990Z,79.14
2022-10-19T05:05:59.683Z,78.10
2022-10-19T05:08:01.938Z,77.50
2022-10-19T05:10:09.098Z,77.65
2022-10-19T05:12:11.036Z,77.69
2022-10-19T05:14:12.846Z,77.66
2022-10-19T05:16:21.216Z,77.43
2022-10-19T05:18:23.170Z,77.39
2022-10-19T05:20:25.298Z,77.84
2022-10-19T05:22:28.293Z,77.68
2022-10-19T05:24:32.727Z,77.74
2022-10-19T05:26:34.646Z,77.46
2022-10-19T05:28:37.260Z,77.38
2022-10-19T05:30:39.458Z,77.32
2022-10-19T05:32:41.529Z,77.06
2022-10-19T05:34:43.576Z,77.73
2022-10-19T05:36:45.478Z,77.38
2022-10-19T05:38:50.439Z,77.34
2022-10-19T05:40:53.641Z,77.27
2022-10-19T05:42:55.805Z,76.86
2022-10-19T05:44:57.661Z,76.76
2022-10-19T05:46:59.536Z,76.98
2022-10-19T05:49:01.504Z,76.72
2022-10-19T05:51:08.371Z,76.49
2022-10-19T05:53:10.316Z,77.02
2022-10-19T05:55:13.218Z,76.90
2022-10-19T05:57:15.048Z,76.52
2022-10-19T05:59:21.165Z,76.31
2022-10-19T06:01:23.462Z,76.98
2022-10-19T06:03:26.390Z,76.56
2022-10-19T06:05:28.344Z,76.62
2022-10-19T06:07:30.234Z,76.87
2022-10-19T06:09:36.282Z,77.17
2022-10-19T06:11:41.022Z,76.94
2022-10-19T06:13:44.734Z,76.85
2022-10-19T06:15:50.761Z,77.23
2022-10-19T06:17:52.611Z,77.83
2022-10-19T06:20:02.502Z,78.05
2022-10-19T06:22:05.376Z,78.30
2022-10-19T06:24:11.962Z,78.51
2022-10-19T06:26:14.614Z,78.96
2022-10-19T06:28:16.536Z,79.36
2022-10-19T06:30:18.492Z,79.40
2022-10-19T06:32:20.833Z,79.07
2022-10-19T06:34:23.934Z,79.08
2022-10-19T06:36:30.521Z,78.54
2022-10-19T06:38:32.518Z,78.63
2022-10-19T06:40:35.409Z,78.77
2022-10-19T06:42:40.650Z,78.81
2022-10-19T06:44:42.538Z,78.60
2022-10-19T06:46:44.381Z,78.76
2022-10-19T06:49:01.019Z,78.80
2022-10-19T06:51:06.434Z,78.88
2022-10-19T06:53:08.683Z,79.03
2022-10-19T06:55:10.545Z,78.81
2022-10-19T06:57:13.456Z,78.53
2022-10-19T06:59:15.439Z,78.28
2022-10-19T07:01:17.613Z,76.77
2022-10-19T07:03:21.182Z,75.65
2022-10-19T07:05:23.140Z,75.27
2022-10-19T07:07:25.755Z,72.75
2022-10-19T07:09:28.808Z,72.83
2022-10-19T07:11:30.794Z,72.31
2022-10-19T07:13:32.767Z,72.90
2022-10-19T07:15:34.708Z,72.79
2022-10-19T07:17:36.727Z,73.34
2022-10-19T07:19:38.945Z,74.11
2022-10-19T07:21:46.947Z,74.13
2022-10-19T07:23:49.265Z,72.93
2022-10-19T07:25:53.013Z,73.18
2022-10-19T07:27:55.093Z,73.13
2022-10-19T07:29:57.024Z,73.26
2022-10-19T07:31:59.948Z,73.37
2022-10-19T07:34:03.866Z,73.19
2022-10-19T07:36:08.522Z,73.42
2022-10-19T07:38:12.320Z,73.74
2022-10-19T07:40:15.426Z,73.99
2022-10-19T07:42:17.288Z,72.63
2022-10-19T07:44:19.843Z,72.95
2022-10-19T07:46:24.249Z,73.22
2022-10-19T07:48:27.314Z,73.58
2022-10-19T07:50:29.371Z,73.36
2022-10-19T07:52:34.415Z,73.05
2022-10-19T07:54:38.873Z,72.95
2022-10-19T07:56:41.327Z,72.17
2022-10-19T07:58:43.888Z,71.01
2022-10-19T08:00:45.883Z,71.46
2022-10-19T08:02:59.799Z,71.25
2022-10-19T08:05:11.818Z,72.04
2022-10-19T08:07:14.316Z,72.98
2022-10-19T08:09:40.134Z,73.96
2022-10-19T08:11:39.078Z,74.66
2022-10-19T08:13:41.193Z,75.54
2022-10-19T08:15:43.174Z,75.98
2022-10-19T08:17:45.156Z,77.16
2022-10-19T08:19:47.333Z,76.78
2022-10-19T08:21:49.683Z,77.51
2022-10-19T08:23:51.764Z,77.75
2022-10-19T08:25:59.210Z,78.34
2022-10-19T08:28:02.185Z,77.94
2022-10-19T08:30:04.468Z,78.17
2022-10-19T08:32:06.680Z,78.52
2022-10-19T08:34:09.158Z,78.54
2022-10-19T08:36:12.668Z,78.96
2022-10-19T08:38:14.649Z,79.71
2022-10-19T08:40:25.717Z,79.38
2022-10-19T08:42:50.164Z,80.04
2022-10-19T08:45:25.029Z,79.69
2022-10-19T08:47:35.725Z,79.72
2022-10-19T08:49:37.792Z,80.28
2022-10-19T08:51:43.378Z,80.13
2022-10-19T08:54:00.669Z,79.39
2022-10-19T08:56:49.228Z,79.17
2022-10-19T08:58:48.765Z,78.70
2022-10-19T09:01:02.692Z,78.86
2022-10-19T09:03:54.496Z,78.89
2022-10-19T09:06:28.810Z,79.13
2022-10-19T09:08:30.930Z,78.61
2022-10-19T09:10:37.741Z,78.84
2022-10-19T09:12:53.885Z,79.10
2022-10-19T09:15:01.695Z,79.11
2022-10-19T09:17:10.978Z,78.65
2022-10-19T09:19:22.227Z,78.93
2022-10-19T09:21:40.886Z,78.12
2022-10-19T09:24:12.770Z,76.83
2022-10-19T09:26:21.934Z,76.35
2022-10-19T09:28:45.713Z,75.77
2022-10-19T09:30:51.736Z,74.92
2022-10-19T09:33:02.892Z,75.37
2022-10-19T09:35:38.602Z,75.19
2022-10-19T09:37:45.852Z,75.48
2022-10-19T09:39:53.974Z,76.01
2022-10-19T09:41:59.702Z,76.05
2022-10-19T09:44:01.993Z,76.72
2022-10-19T09:46:19.731Z,75.52
2022-10-19T09:48:30.851Z,73.92
2022-10-19T09:50:32.801Z,71.07
2022-10-19T09:52:38.245Z,71.06
2022-10-19T09:54:40.301Z,70.58
2022-10-19T09:56:53.884Z,69.89
2022-10-19T09:58:58.893Z,69.08
2022-10-19T10:01:02.926Z,68.88
2022-10-19T10:03:06.346Z,69.04
2022-10-19T10:05:15.984Z,69.06
2022-10-19T10:07:21.022Z,71.04
2022-10-19T10:09:26.928Z,72.95
2022-10-19T10:11:32.840Z,73.99
2022-10-19T10:13:42.046Z,73.90
2022-10-19T10:15:49.172Z,72.48
2022-10-19T10:17:51.524Z,72.68
2022-10-19T10:20:00.642Z,73.75
2022-10-19T10:22:04.755Z,74.29
2022-10-19T10:24:14.505Z,74.31
2022-10-19T10:26:20.103Z,74.75
2022-10-19T10:28:25.770Z,75.57
2022-10-19T10:30:33.067Z,75.71
2022-10-19T10:32:42.190Z,75.57
2022-10-19T10:35:06.594Z,74.97
2022-10-19T10:37:20.954Z,75.24
2022-10-19T10:39:27.281Z,75.43
2022-10-19T10:41:30.266Z,75.63
2022-10-19T10:43:34.958Z,76.22
2022-10-19T10:45:48.884Z,77.82
2022-10-19T10:47:53.226Z,78.07
2022-10-19T10:50:06.686Z,76.33
2022-10-19T10:52:18.804Z,75.71
2022-10-19T10:54:24.781Z,75.66
2022-10-19T10:56:29.968Z,76.23
2022-10-19T10:58:43.976Z,77.42
2022-10-19T11:00:49.465Z,78.10
2022-10-19T11:03:08.280Z,78.37
2022-10-19T11:05:23.135Z,77.88
2022-10-19T11:07:28.481Z,78.67
2022-10-19T11:09:42.713Z,78.13
2022-10-19T11:11:48.097Z,77.55
2022-10-19T11:14:22.776Z,77.07
2022-10-19T11:16:31.556Z,77.12
2022-10-19T11:19:02.340Z,75.25
2022-10-19T11:21:16.981Z,76.16
2022-10-19T11:23:50.017Z,75.04
2022-10-19T11:26:29.139Z,74.44
2022-10-19T11:29:17.503Z,75.18
2022-10-19T11:31:39.123Z,73.26
2022-10-19T11:34:00.440Z,71.64
2022-10-19T11:36:10.323Z,72.37
2022-10-19T11:38:41.532Z,71.06
2022-10-19T11:41:32.067Z,70.37
2022-10-19T11:43:47.854Z,67.38
2022-10-19T11:46:15.961Z,66.20
2022-10-19T11:48:43.833Z,66.20
2022-10-19T11:51:04.111Z,66.99
2022-10-19T11:53:28.192Z,66.12
2022-10-19T11:55:54.962Z,66.15
2022-10-19T11:58:28.920Z,65.84
2022-10-19T12:00:48.944Z,65.03
2022-10-19T12:03:15.458Z,63.77
2022-10-19T12:05:29.702Z,64.35
2022-10-19T12:07:51.508Z,64.59
2022-10-19T12:10:04.968Z,62.53
2022-10-19T12:12:26.847Z,63.39
2022-10-19T12:14:34.312Z,61.98
2022-10-19T12:16:40.923Z,61.05
2022-10-19T12:19:00.738Z,62.28
2022-10-19T12:21:08.746Z,62.34
2022-10-19T12:23:23.358Z,61.73
2022-10-19T12:25:26.758Z,62.12
2022-10-19T12:27:37.487Z,61.38
2022-10-19T12:29:44.924Z,61.97
2022-10-19T12:31:49.276Z,60.55
2022-10-19T12:34:03.205Z,59.43
2022-10-19T12:36:35.956Z,59.87
2022-10-19T12:39:02.979Z,60.04
2022-10-19T12:41:09.168Z,60.47
2022-10-19T12:43:44.233Z,61.14
2022-10-19T12:46:23.334Z,60.38
2022-10-19T12:48:25.324Z,60.81
2022-10-19T12:50:49.812Z,61.56
2022-10-19T12:52:54.229Z,61.15
2022-10-19T12:55:25.310Z,60.70
2022-10-19T12:57:30.942Z,58.45
2022-10-19T12:59:36.953Z,57.11
2022-10-19T13:01:44.556Z,57.93
2022-10-19T13:04:07.533Z,57.11
2022-10-19T13:06:19.432Z,56.51
2022-10-19T13:08:57.410Z,57.14
2022-10-19T13:11:15.401Z,54.34
2022-10-19T13:13:55.748Z,54.92
2022-10-19T13:15:57.875Z,54.65
2022-10-19T13:18:00.608Z,54.60
2022-10-19T13:20:17.992Z,54.74
2022-10-19T13:22:28.409Z,54.47
2022-10-19T13:24:35.757Z,54.41
2022-10-19T13:26:38.681Z,54.65
2022-10-19T13:28:53.023Z,55.66
2022-10-19T13:31:06.179Z,54.32
2022-10-19T13:33:35.037Z,54.19
2022-10-19T13:35:39.148Z,55.44
2022-10-19T13:37:43.981Z,54.62
2022-10-19T13:39:48.210Z,54.07
2022-10-19T13:41:53.259Z,54.10
2022-10-19T13:44:25.375Z,52.27
2022-10-19T13:46:31.225Z,54.27
2022-10-19T13:48:45.953Z,53.96
2022-10-19T13:51:01.876Z,55.12
2022-10-19T13:53:37.792Z,55.33
2022-10-19T13:56:00.556Z,55.91
2022-10-19T13:58:20.836Z,54.99
2022-10-19T14:00:35.611Z,54.71
2022-10-19T14:02:56.080Z,55.42
2022-10-19T14:05:21.250Z,53.80
2022-10-19T14:07:31.058Z,54.96
2022-10-19T14:10:04.875Z,54.26
2022-10-19T14:12:15.505Z,54.98
2022-10-19T14:14:28.597Z,55.79
2022-10-19T14:16:31.455Z,57.56
2022-10-19T14:18:35.496Z,58.74
2022-10-19T14:20:39.288Z,58.09
2022-10-19T14:22:42.196Z,58.62
2022-10-19T14:24:46.156Z,58.44
2022-10-19T14:26:48.269Z,58.47
2022-10-19T14:28:55.293Z,58.05
2022-10-19T14:31:09.134Z,58.79
2022-10-19T14:33:15.093Z,58.52
2022-10-19T14:35:38.588Z,59.24
2022-10-19T14:37:43.586Z,58.59
2022-10-19T14:40:28.116Z,59.06
2022-10-19T14:42:45.711Z,57.45
2022-10-19T14:44:51.615Z,57.10
2022-10-19T14:46:56.670Z,54.71
2022-10-19T14:49:06.962Z,54.99
2022-10-19T14:51:31.291Z,54.72
2022-10-19T14:53:54.653Z,55.14
2022-10-19T14:56:01.616Z,55.95
2022-10-19T14:58:12.290Z,56.27
2022-10-19T15:00:21.374Z,56.53
2022-10-19T15:02:27.864Z,56.65
2022-10-19T15:04:35.249Z,56.93
2022-10-19T15:06:42.673Z,57.65
2022-10-19T15:08:51.117Z,57.86
2022-10-19T15:10:53.689Z,58.05
2022-10-19T15:13:04.880Z,58.57
2022-10-19T15:15:26.225Z,57.94
2022-10-19T15:17:30.836Z,57.59
2022-10-19T15:19:40.125Z,57.96
2022-10-19T15:21:43.184Z,58.29
2022-10-19T15:23:50.787Z,57.50
2022-10-19T15:26:00.696Z,57.76
2022-10-19T15:28:31.593Z,56.72
2022-10-19T15:30:34.154Z,57.73
2022-10-19T15:32:51.071Z,56.58
2022-10-19T15:34:52.960Z,57.02
2022-10-19T15:37:01.574Z,57.62
2022-10-19T15:41:34.077Z,57.41
2022-10-19T15:43:47.458Z,57.46
2022-10-19T15:46:01.690Z,57.49
2022-10-19T15:48:26.809Z,57.97
2022-10-19T15:50:40.152Z,58.79
2022-10-19T15:52:42.003Z,58.06
2022-10-19T15:54:52.105Z,58.13
2022-10-19T15:56:54.530Z,58.79
2022-10-19T15:58:59.766Z,59.04
2022-10-19T16:01:02.156Z,59.57
2022-10-19T16:03:04.684Z,59.67
2022-10-19T16:05:09.395Z,59.78
2022-10-19T16:07:26.412Z,60.36
2022-10-19T16:09:30.546Z,60.55
2022-10-19T16:11:33.971Z,60.91
2022-10-19T16:13:37.180Z,61.48
2022-10-19T16:15:39.576Z,62.42
2022-10-19T16:17:44.944Z,63.33
2022-10-19T16:19:52.972Z,63.81
2022-10-19T16:21:54.910Z,63.55
2022-10-19T16:24:02.001Z,63.86
2022-10-19T16:26:06.144Z,64.56
2022-10-19T16:28:11.212Z,64.27
2022-10-19T16:30:13.762Z,64.80
2022-10-19T16:32:15.828Z,64.87
2022-10-19T16:34:18.834Z,65.26
2022-10-19T16:36:21.924Z,65.68
2022-10-19T16:38:25.109Z,66.08
2022-10-19T16:40:27.171Z,65.74
2022-10-19T16:42:30.672Z,65.82
2022-10-19T16:44:32.615Z,66.40
2022-10-19T16:46:34.549Z,66.72
2022-10-19T16:48:38.457Z,66.71
2022-10-19T16:53:10.860Z,66.44
2022-10-19T16:55:13.555Z,66.47
2022-10-19T16:57:18.836Z,66.31
2022-10-19T16:59:22.096Z,66.67
2022-10-19T17:01:25.046Z,65.91
2022-10-19T17:03:29.256Z,66.29
2022-10-19T17:05:37.856Z,64.82
2022-10-19T17:07:40.829Z,65.56
2022-10-19T17:09:44.038Z,65.64
2022-10-19T17:11:47.196Z,65.50
2022-10-19T17:13:52.400Z,65.62
2022-10-19T17:15:54.936Z,65.40
2022-10-19T17:17:58.638Z,65.92
2022-10-19T17:20:02.257Z,65.81
2022-10-19T17:22:06.862Z,66.46
2022-10-19T17:24:20.102Z,67.03
2022-10-19T17:26:33.479Z,67.07
2022-10-19T17:28:38.618Z,67.46
2022-10-19T17:30:44.868Z,67.91
2022-10-19T17:32:47.328Z,68.15
2022-10-19T17:34:49.731Z,69.08
2022-10-19T17:36:52.151Z,69.33
2022-10-19T17:38:57.161Z,69.37
2022-10-19T17:41:20.661Z,69.84
2022-10-19T17:43:23.166Z,69.79
2022-10-19T17:45:25.316Z,69.27
2022-10-19T17:47:28.739Z,69.76
2022-10-19T17:49:37.061Z,69.69
2022-10-19T17:51:41.009Z,69.92
2022-10-19T17:53:50.431Z,70.62
2022-10-19T17:55:55.249Z,71.29
2022-10-19T17:57:57.986Z,71.43
2022-10-19T17:59:59.990Z,71.21
2022-10-19T18:02:04.774Z,70.92
2022-10-19T18:04:06.980Z,70.95
2022-10-19T18:06:15.373Z,71.99
2022-10-19T18:08:17.842Z,71.01
2022-10-19T18:10:21.273Z,71.54
2022-10-19T18:12:24.461Z,70.80
2022-10-19T18:14:26.996Z,71.17
2022-10-19T18:16:32.571Z,70.87
2022-10-19T18:18:38.069Z,70.80
2022-10-19T18:20:41.058Z,70.49
2022-10-19T18:22:43.658Z,70.70
2022-10-19T18:24:46.030Z,70.50
2022-10-19T18:26:51.640Z,70.40
2022-10-19T18:28:57.068Z,70.68
2022-10-19T18:31:22.859Z,71.01
2022-10-19T18:33:29.099Z,70.69
2022-10-19T18:35:39.224Z,70.92
2022-10-19T18:37:44.001Z,71.05
2022-10-19T18:39:46.406Z,71.10
2022-10-19T18:41:52.930Z,71.51
2022-10-19T18:43:57.990Z,71.61
2022-10-19T18:46:01.807Z,70.99
2022-10-19T18:48:04.345Z,71.27
2022-10-19T18:50:06.986Z,71.67
2022-10-19T18:52:09.519Z,71.96
2022-10-19T18:54:13.182Z,71.44
2022-10-19T18:56:20.656Z,72.03
2022-10-19T18:58:24.628Z,71.54
2022-10-19T19:00:27.050Z,71.55
2022-10-19T19:02:42.222Z,72.04
2022-10-19T19:04:53.719Z,71.90
2022-10-19T19:06:56.304Z,72.72
2022-10-19T19:08:59.341Z,72.43
2022-10-19T19:11:12.613Z,72.67
2022-10-19T19:13:14.608Z,73.22
2022-10-19T19:15:17.668Z,72.86
2022-10-19T19:17:21.197Z,72.38
2022-10-19T19:19:25.964Z,73.07
2022-10-19T19:21:30.502Z,72.80
2022-10-19T19:23:33.928Z,72.67
2022-10-19T19:25:40.541Z,73.20
2022-10-19T19:27:42.837Z,73.83
2022-10-19T19:29:45.395Z,73.50
2022-10-19T19:31:49.235Z,74.03
2022-10-19T19:33:51.848Z,74.33
2022-10-19T19:35:57.532Z,74.37
2022-10-19T19:38:05.860Z,74.20
2022-10-19T19:40:09.057Z,74.16
2022-10-19T19:42:12.123Z,74.14
2022-10-19T19:44:14.646Z,74.38
2022-10-19T19:46:19.675Z,73.82
2022-10-19T19:48:22.136Z,74.10
2022-10-19T19:50:24.566Z,74.52
2022-10-19T19:52:27.037Z,74.50
2022-10-19T19:54:32.665Z,74.42
2022-10-19T19:56:35.389Z,75.30
2022-10-19T19:58:37.830Z,74.85
2022-10-19T20:00:40.227Z,75.15
2022-10-19T20:02:44.770Z,75.24
2022-10-19T20:04:47.351Z,74.67
2022-10-19T20:06:49.494Z,75.28
2022-10-19T20:08:54.681Z,75.41
2022-10-19T20:11:02.199Z,75.55
2022-10-19T20:15:07.106Z,75.74
2022-10-19T20:17:10.359Z,75.43
2022-10-19T20:19:14.890Z,76.21
2022-10-19T20:21:18.162Z,76.15
2022-10-19T20:23:21.169Z,76.24
2022-10-19T20:25:23.162Z,76.17
2022-10-19T20:27:26.298Z,76.30
2022-10-19T20:29:30.965Z,76.56
2022-10-19T20:31:40.067Z,77.48
2022-10-19T20:33:44.558Z,77.13
2022-10-19T20:35:47.051Z,77.13
2022-10-19T20:37:51.624Z,76.76
2022-10-19T20:39:54.008Z,76.64
2022-10-19T20:41:57.589Z,77.51
2022-10-19T20:44:00.665Z,77.07
2022-10-19T20:46:17.125Z,77.39
2022-10-19T20:48:19.244Z,77.36
2022-10-19T20:50:22.060Z,77.02
2022-10-19T20:52:24.347Z,77.21
2022-10-19T20:54:29.816Z,77.26
2022-10-19T20:56:35.257Z,77.01
2022-10-19T20:58:42.842Z,77.69
2022-10-19T21:00:44.915Z,77.35
2022-10-19T21:02:46.943Z,77.50
2022-10-19T21:04:48.887Z,77.33
2022-10-19T21:06:52.053Z,77.94
2022-10-19T21:08:54.839Z,77.57
2022-10-19T21:10:56.869Z,77.88
2022-10-19T21:12:58.762Z,77.50
2022-10-19T21:15:00.702Z,78.22
2022-10-19T21:17:02.544Z,77.38
2022-10-19T21:19:11.575Z,77.89
2022-10-19T21:21:22.248Z,77.93
2022-10-19T21:23:25.291Z,78.06
2022-10-19T21:25:30.474Z,78.30
2022-10-19T21:27:32.516Z,78.57
2022-10-19T21:29:35.280Z,78.07
2022-10-19T21:31:39.743Z,78.04
2022-10-19T21:33:42.238Z,77.56
2022-10-19T21:35:47.210Z,77.86
2022-10-19T21:37:49.215Z,78.23
2022-10-19T21:39:52.119Z,78.50
2022-10-19T21:41:54.379Z,78.62
2022-10-19T21:43:56.262Z,78.97
2022-10-19T21:45:58.345Z,79.28
2022-10-19T21:48:00.192Z,79.24
2022-10-19T21:50:08.258Z,79.37
2022-10-19T21:52:15.158Z,79.24
2022-10-19T21:54:21.185Z,79.87
2022-10-19T21:56:23.102Z,79.92
2022-10-19T21:58:26.195Z,79.80
2022-10-19T22:00:28.066Z,79.24
2022-10-19T22:02:35.887Z,79.49
2022-10-19T22:04:37.708Z,80.26
2022-10-19T22:06:45.624Z,80.06
2022-10-19T22:08:54.224Z,80.15
2022-10-19T22:10:56.152Z,80.76
2022-10-19T22:12:58.401Z,80.65
2022-10-19T22:15:00.344Z,80.27
2022-10-19T22:17:02.219Z,80.45
2022-10-19T22:19:06.246Z,80.40
2022-10-19T22:21:13.968Z,80.43
2022-10-19T22:23:15.872Z,80.83
2022-10-19T22:25:17.660Z,80.61
2022-10-19T22:27:20.496Z,80.68
2022-10-19T22:29:22.367Z,80.92
2022-10-19T22:31:25.091Z,80.75
2022-10-19T22:33:26.907Z,80.48
2022-10-19T22:35:28.964Z,80.32
2022-10-19T22:37:30.901Z,80.55
2022-10-19T22:39:34.899Z,80.53
2022-10-19T22:42:33.047Z,80.39
2022-10-19T22:44:35.177Z,80.79
2022-10-19T22:46:38.036Z,80.56
2022-10-19T22:48:39.925Z,80.59
2022-10-19T22:50:43.641Z,80.50
2022-10-19T22:52:45.481Z,80.61
2022-10-19T22:54:53.453Z,80.92
2022-10-19T22:56:57.425Z,80.65
2022-10-19T22:59:00.746Z,80.69
2022-10-19T23:01:05.512Z,80.50
2022-10-19T23:03:07.360Z,81.09
2022-10-19T23:05:09.712Z,80.58
2022-10-19T23:09:20.904Z,81.36
2022-10-19T23:11:25.646Z,81.01
2022-10-19T23:13:27.685Z,80.53
2022-10-19T23:15:29.645Z,80.96
2022-10-19T23:17:31.651Z,80.49
2022-10-19T23:19:33.468Z,80.84
2022-10-19T23:21:38.381Z,81.05
2022-10-19T23:23:41.287Z,80.75
2022-10-19T23:25:43.203Z,80.90
2022-10-19T23:27:48.134Z,80.96
2022-10-19T23:29:51.062Z,81.18
2022-10-19T23:31:52.932Z,81.21
2022-10-19T23:33:54.861Z,81.46
2022-10-19T23:36:09.006Z,81.24
2022-10-19T23:38:10.940Z,81.67
2022-10-19T23:40:12.888Z,81.20
2022-10-19T23:42:14.878Z,81.45
2022-10-19T23:44:16.742Z,81.57
2022-10-19T23:46:19.972Z,81.09
2022-10-19T23:48:22.014Z,81.34
2022-10-19T23:50:23.933Z,81.20
2022-10-19T23:52:26.841Z,81.40
2022-10-19T23:54:28.689Z,81.35
2022-10-19T23:56:30.621Z,81.68
2022-10-19T23:58:32.765Z,81.40
